Time;durP1;ratioP1;P1;durP2;ratioP2;P2;SDS_P1;SDS_P2;PMS_P1;PMS_P2;Temp;Humidity;BMP_temperature;BMP_pressure;BME280_temperature;BME280_humidity;BME280_pressure;Samples;Min_cycle;Max_cycle;Signal;HPM_P1;HPM_P2
2022/04/06 00:01:48;;;;;;;7.90;7.07;;;8.40;99.90;;;;;;5032922;28;20236;-66
2022/04/06 00:04:17;;;;;;;9.00;6.97;;;8.40;99.90;;;;;;5033040;28;20241;-66
2022/04/06 00:06:45;;;;;;;7.67;6.83;;;8.40;99.90;;;;;;5032899;28;20251;-66
2022/04/06 00:09:20;;;;;;;8.90;6.50;;;8.40;99.90;;;;;;5032988;28;20647;-66
2022/04/06 00:11:49;;;;;;;7.00;6.30;;;8.40;99.90;;;;;;5032283;28;20236;-65
2022/04/06 00:14:18;;;;;;;7.80;6.10;;;8.40;99.90;;;;;;5032735;28;20332;-66
2022/04/06 00:16:46;;;;;;;8.07;6.70;;;8.40;99.90;;;;;;5032875;28;20322;-66
2022/04/06 00:19:15;;;;;;;7.10;5.93;;;8.50;99.90;;;;;;5032433;28;20290;-66
2022/04/06 00:21:43;;;;;;;7.47;5.87;;;8.40;99.90;;;;;;5032907;28;20245;-66
2022/04/06 00:24:12;;;;;;;7.33;6.43;;;8.50;99.90;;;;;;5027376;28;20636;-66
2022/04/06 00:26:42;;;;;;;9.40;5.93;;;8.40;99.90;;;;;;5049987;28;20279;-65
2022/04/06 00:29:10;;;;;;;7.50;6.03;;;8.40;99.90;;;;;;5049242;28;20224;-65
2022/04/06 00:31:38;;;;;;;7.63;6.60;;;8.40;99.90;;;;;;5049111;28;20720;-66
2022/04/06 00:34:06;;;;;;;8.47;5.20;;;8.40;99.90;;;;;;5046961;28;20706;-66
2022/04/06 00:36:34;;;;;;;6.40;5.43;;;8.40;99.90;;;;;;5041169;28;20624;-65
2022/04/06 00:39:03;;;;;;;5.70;5.10;;;8.50;99.90;;;;;;5033262;28;20236;-66
2022/04/06 00:41:32;;;;;;;8.30;6.17;;;8.40;99.90;;;;;;5051057;28;20692;-66
2022/04/06 00:44:13;;;;;;;7.33;5.67;;;8.40;99.90;;;;;;5052436;28;20239;-66
2022/04/06 00:46:42;;;;;;;7.10;5.77;;;8.40;99.90;;;;;;5044397;28;20754;-66
2022/04/06 00:49:13;;;;;;;6.33;5.13;;;8.40;99.90;;;;;;5052067;28;20238;-65
2022/04/06 00:51:44;;;;;;;6.63;5.27;;;8.40;99.90;;;;;;5042610;28;20236;-66
2022/04/06 00:54:14;;;;;;;7.10;5.33;;;8.40;99.90;;;;;;5031962;28;20721;-66
2022/04/06 00:56:43;;;;;;;6.73;5.70;;;8.40;99.90;;;;;;5032145;28;20294;-66
2022/04/06 00:59:13;;;;;;;5.87;5.00;;;8.40;99.90;;;;;;5037160;28;20322;-66
2022/04/06 01:01:41;;;;;;;6.77;5.10;;;8.50;99.90;;;;;;5032010;28;20319;-66
2022/04/06 01:04:09;;;;;;;8.90;5.03;;;8.50;99.90;;;;;;5032236;28;20336;-65
2022/04/06 01:06:37;;;;;;;7.10;5.00;;;8.50;99.90;;;;;;5031644;28;20589;-66
2022/04/06 01:09:06;;;;;;;5.07;4.57;;;8.40;99.90;;;;;;5032274;28;20233;-66
2022/04/06 01:11:34;;;;;;;8.00;4.90;;;8.40;99.90;;;;;;5037798;28;20331;-65
2022/04/06 01:14:03;;;;;;;5.63;4.97;;;8.40;99.90;;;;;;5032236;28;20315;-66
2022/04/06 01:16:33;;;;;;;5.30;4.67;;;8.40;99.90;;;;;;5032095;28;20236;-66
2022/04/06 01:19:01;;;;;;;5.47;4.40;;;8.50;99.90;;;;;;5031807;28;20241;-66
2022/04/06 01:21:29;;;;;;;4.73;4.33;;;8.40;99.90;;;;;;5031089;28;20247;-65
2022/04/06 01:23:59;;;;;;;6.77;4.87;;;8.40;99.90;;;;;;5037143;28;20228;-65
2022/04/06 01:26:27;;;;;;;5.80;4.67;;;8.40;99.90;;;;;;5031205;28;20624;-65
2022/04/06 01:28:55;;;;;;;5.90;4.80;;;8.40;99.90;;;;;;5034772;28;20243;-66
2022/04/06 01:31:23;;;;;;;6.07;4.73;;;8.50;99.90;;;;;;5039171;28;20643;-66
2022/04/06 01:33:51;;;;;;;5.00;4.50;;;8.40;99.90;;;;;;5031606;28;20705;-66
2022/04/06 01:36:19;;;;;;;4.90;4.07;;;8.40;99.90;;;;;;5031765;28;20654;-66
2022/04/06 01:38:47;;;;;;;4.70;4.10;;;8.40;99.90;;;;;;5031093;28;20570;-66
2022/04/06 01:41:17;;;;;;;5.17;4.67;;;8.40;99.90;;;;;;5031059;28;20236;-66
2022/04/06 01:43:45;;;;;;;6.67;4.53;;;8.30;99.90;;;;;;5031426;28;20240;-66
2022/04/06 01:46:13;;;;;;;5.80;4.57;;;8.40;99.90;;;;;;5030919;28;20240;-66
2022/04/06 01:52:12;;;;;;;6.10;4.40;;;8.40;99.90;;;;;;5031433;28;20246;-66
2022/04/06 01:54:14;;;;;;;6.20;4.60;;;8.40;99.90;;;;;;5009886;28;20290;-66
2022/04/06 01:56:44;;;;;;;5.40;4.47;;;8.30;99.90;;;;;;5030844;28;20722;-66
2022/04/06 01:59:12;;;;;;;7.53;4.67;;;8.30;99.90;;;;;;5029671;28;20248;-66
2022/04/06 02:01:40;;;;;;;7.43;4.87;;;8.30;99.90;;;;;;5030146;28;20253;-66
2022/04/06 02:04:14;;;;;;;7.37;5.60;;;8.30;99.90;;;;;;5030631;28;20259;-66
2022/04/06 02:06:43;;;;;;;8.37;5.57;;;8.30;99.90;;;;;;5030748;28;20268;-66
2022/04/06 02:09:18;;;;;;;6.40;5.77;;;8.40;99.90;;;;;;5030977;28;20251;-66
2022/04/06 02:11:48;;;;;;;8.53;6.03;;;8.40;99.90;;;;;;5036571;28;20635;-66
2022/04/06 02:14:16;;;;;;;7.33;5.17;;;8.30;99.90;;;;;;5030766;28;20715;-66
2022/04/06 02:16:44;;;;;;;8.07;6.40;;;8.30;99.90;;;;;;5030016;28;20298;-66
2022/04/06 02:19:12;;;;;;;9.27;6.33;;;8.30;99.90;;;;;;5030531;28;21074;-66
2022/04/06 02:21:41;;;;;;;6.57;5.77;;;8.40;99.90;;;;;;5030697;28;20319;-66
2022/04/06 02:24:09;;;;;;;8.67;7.03;;;8.40;99.90;;;;;;5030703;28;20246;-66
2022/04/06 02:26:37;;;;;;;9.03;6.80;;;8.40;99.90;;;;;;5030576;28;20236;-66
2022/04/06 02:29:07;;;;;;;8.60;7.30;;;8.40;99.90;;;;;;5035189;28;20224;-66
2022/04/06 02:31:35;;;;;;;10.80;8.10;;;8.40;99.90;;;;;;5036175;28;20781;-66
2022/04/06 02:34:03;;;;;;;14.40;8.33;;;8.40;99.90;;;;;;5030224;28;20569;-66
2022/04/06 02:36:31;;;;;;;10.73;8.17;;;8.40;99.90;;;;;;5030460;28;20290;-66
2022/04/06 02:39:00;;;;;;;11.00;8.53;;;8.40;99.90;;;;;;5037312;28;20241;-66
2022/04/06 02:41:28;;;;;;;12.17;8.73;;;8.40;99.90;;;;;;5042212;28;20243;-66
2022/04/06 02:43:56;;;;;;;13.30;9.17;;;8.40;99.90;;;;;;5050713;28;20229;-66
2022/04/06 02:46:25;;;;;;;13.70;9.03;;;8.40;99.90;;;;;;5042763;28;20244;-66
2022/04/06 02:48:53;;;;;;;14.00;9.20;;;8.40;99.90;;;;;;5050375;28;20240;-66
2022/04/06 02:51:22;;;;;;;12.60;9.23;;;8.40;99.90;;;;;;5049825;28;20232;-66
2022/04/06 02:53:50;;;;;;;15.30;10.57;;;8.40;99.90;;;;;;5049383;28;20235;-66
2022/04/06 02:56:18;;;;;;;13.77;9.60;;;8.40;99.90;;;;;;5032013;28;20240;-66
2022/04/06 02:58:46;;;;;;;13.47;9.77;;;8.40;99.90;;;;;;5032103;28;20782;-66
2022/04/06 03:01:14;;;;;;;11.47;9.37;;;8.40;99.90;;;;;;5033066;28;20714;-66
2022/04/06 03:03:44;;;;;;;13.40;10.53;;;8.40;99.90;;;;;;5030354;28;20240;-66
2022/04/06 03:06:12;;;;;;;14.63;10.60;;;8.40;99.90;;;;;;5030979;28;20584;-66
2022/04/06 03:08:40;;;;;;;17.50;10.60;;;8.40;99.90;;;;;;5044642;28;20240;-66
2022/04/06 03:11:08;;;;;;;14.20;10.00;;;8.40;99.90;;;;;;5030164;28;20705;-66
2022/04/06 03:13:36;;;;;;;16.97;11.23;;;8.40;99.90;;;;;;5029962;28;20236;-66
2022/04/06 03:16:05;;;;;;;16.60;11.80;;;8.40;99.90;;;;;;5029618;28;20647;-66
2022/04/06 03:18:34;;;;;;;19.53;11.83;;;8.30;99.90;;;;;;5029936;28;20245;-66
2022/04/06 03:21:03;;;;;;;16.43;11.23;;;8.40;99.90;;;;;;5030491;28;20232;-66
2022/04/06 03:23:32;;;;;;;19.20;10.93;;;8.40;99.90;;;;;;5030391;28;20286;-66
2022/04/06 03:26:00;;;;;;;15.67;11.37;;;8.40;99.90;;;;;;5045999;28;20231;-66
2022/04/06 03:28:28;;;;;;;20.27;11.73;;;8.40;99.90;;;;;;5051911;28;20232;-67
2022/04/06 03:30:56;;;;;;;20.27;12.57;;;8.40;99.90;;;;;;5053394;28;20684;-66
2022/04/06 03:33:24;;;;;;;18.67;12.47;;;8.40;99.90;;;;;;5053646;28;20236;-66
2022/04/06 03:35:53;;;;;;;18.80;12.80;;;8.40;99.90;;;;;;5053397;28;20780;-66
2022/04/06 03:38:23;;;;;;;24.37;13.37;;;8.40;99.90;;;;;;5053777;28;20227;-66
2022/04/06 03:40:51;;;;;;;25.13;14.23;;;8.40;99.90;;;;;;5053398;28;20258;-66
2022/04/06 03:43:19;;;;;;;23.23;14.50;;;8.50;99.90;;;;;;5053714;28;20235;-67
2022/04/06 03:45:48;;;;;;;23.23;15.10;;;8.50;99.90;;;;;;5052535;28;20263;-66
2022/04/06 03:48:16;;;;;;;21.43;14.57;;;8.40;99.90;;;;;;5053620;28;20263;-66
2022/04/06 03:50:44;;;;;;;23.20;14.77;;;8.40;99.90;;;;;;5052892;28;20262;-66
2022/04/06 03:53:12;;;;;;;21.07;14.93;;;8.40;99.90;;;;;;5053367;28;20774;-66
2022/04/06 03:55:41;;;;;;;23.13;16.00;;;8.40;99.90;;;;;;5052864;28;20278;-66
2022/04/06 03:58:10;;;;;;;21.07;15.90;;;8.40;99.90;;;;;;5053325;28;20241;-66
2022/04/06 04:00:38;;;;;;;19.63;15.07;;;8.40;99.90;;;;;;5052658;28;20236;-67
2022/04/06 04:03:06;;;;;;;22.07;17.03;;;8.40;99.90;;;;;;5053256;28;20323;-66
2022/04/06 04:05:35;;;;;;;26.40;17.43;;;8.40;99.90;;;;;;5052697;28;20335;-66
2022/04/06 04:08:03;;;;;;;26.10;18.20;;;8.50;99.90;;;;;;5053850;28;20751;-66
2022/04/06 04:10:32;;;;;;;28.17;18.27;;;8.40;99.90;;;;;;5061385;28;20235;-66
2022/04/06 04:13:02;;;;;;;27.87;19.10;;;8.40;99.90;;;;;;5043947;28;20285;-66
2022/04/06 04:15:31;;;;;;;28.77;20.13;;;8.50;99.90;;;;;;5048912;28;20233;-66
2022/04/06 04:17:59;;;;;;;28.97;19.83;;;8.50;99.90;;;;;;5049755;28;20345;-66
2022/04/06 04:20:27;;;;;;;30.33;19.93;;;8.50;99.90;;;;;;5047077;28;20240;-66
2022/04/06 04:22:55;;;;;;;25.87;19.93;;;8.50;99.90;;;;;;5052892;28;20255;-66
2022/04/06 04:25:24;;;;;;;29.87;22.50;;;8.50;99.90;;;;;;5042771;28;20259;-66
2022/04/06 04:27:52;;;;;;;27.83;20.83;;;8.50;99.90;;;;;;5043086;28;20244;-66
2022/04/06 04:30:21;;;;;;;30.83;23.13;;;8.50;99.90;;;;;;5032257;28;20692;-66
2022/04/06 04:32:50;;;;;;;30.83;21.73;;;8.50;99.90;;;;;;5031736;28;20245;-66
2022/04/06 04:35:18;;;;;;;30.10;22.97;;;8.50;99.90;;;;;;5032426;28;20256;-66
2022/04/06 04:37:46;;;;;;;31.67;22.07;;;8.50;99.90;;;;;;5028123;28;20248;-66
2022/04/06 04:40:16;;;;;;;37.90;24.80;;;8.50;99.90;;;;;;5039121;28;20228;-66
2022/04/06 04:42:44;;;;;;;37.77;24.17;;;8.50;99.90;;;;;;5039272;28;20252;-66
2022/04/06 04:45:12;;;;;;;35.73;25.03;;;8.50;99.90;;;;;;5041009;28;20711;-66
2022/04/06 04:47:42;;;;;;;31.60;23.43;;;8.50;99.90;;;;;;5041777;28;20263;-65
2022/04/06 04:50:10;;;;;;;32.90;23.60;;;8.50;99.90;;;;;;5044307;28;20242;-66
2022/04/06 04:52:38;;;;;;;35.10;23.97;;;8.50;99.90;;;;;;5049651;28;20235;-66
2022/04/06 04:55:07;;;;;;;33.60;24.20;;;8.50;99.90;;;;;;5043915;28;20326;-65
2022/04/06 04:57:35;;;;;;;34.77;24.00;;;8.50;99.90;;;;;;5031986;28;20249;-65
2022/04/06 05:00:06;;;;;;;35.57;23.10;;;8.60;99.90;;;;;;5037447;28;20238;-66
2022/04/06 05:02:36;;;;;;;35.33;22.03;;;8.60;99.90;;;;;;5044327;28;20250;-65
2022/04/06 05:05:07;;;;;;;33.60;23.40;;;8.60;99.90;;;;;;5040722;28;20640;-66
2022/04/06 05:07:37;;;;;;;33.03;23.00;;;8.60;99.90;;;;;;5051501;28;20247;-66
2022/04/06 05:10:07;;;;;;;30.13;20.63;;;8.60;99.90;;;;;;5051028;28;20335;-66
2022/04/06 05:12:35;;;;;;;32.97;20.47;;;8.50;99.90;;;;;;5051225;28;20746;-65
2022/04/06 05:15:06;;;;;;;33.40;21.40;;;8.60;99.90;;;;;;5050015;28;20239;-65
2022/04/06 05:17:34;;;;;;;34.80;21.07;;;8.60;99.90;;;;;;5043222;28;20244;-66
2022/04/06 05:20:05;;;;;;;29.13;18.93;;;8.60;99.90;;;;;;5044925;28;20655;-66
2022/04/06 05:22:35;;;;;;;26.10;19.13;;;8.60;99.90;;;;;;5050711;28;20642;-65
2022/04/06 05:25:07;;;;;;;30.70;19.93;;;8.60;99.90;;;;;;5045226;28;20274;-66
2022/04/06 05:27:44;;;;;;;30.83;18.13;;;8.60;99.90;;;;;;5050172;28;20294;-66
2022/04/06 05:30:14;;;;;;;27.90;16.97;;;8.60;99.90;;;;;;5048861;28;20239;-66
2022/04/06 05:32:42;;;;;;;31.37;17.63;;;8.60;99.90;;;;;;5047620;28;20607;-66
2022/04/06 05:35:12;;;;;;;26.57;15.87;;;8.60;99.90;;;;;;5046117;28;20240;-65
2022/04/06 05:37:42;;;;;;;24.30;16.30;;;8.60;99.90;;;;;;5045763;28;20244;-66
2022/04/06 05:40:12;;;;;;;22.53;14.67;;;8.60;99.90;;;;;;5048578;28;20588;-66
2022/04/06 05:42:41;;;;;;;26.30;14.27;;;8.60;99.90;;;;;;5043156;28;20703;-66
2022/04/06 05:45:10;;;;;;;21.87;13.90;;;8.60;99.90;;;;;;5047594;28;20255;-66
2022/04/06 05:47:38;;;;;;;22.20;13.73;;;8.60;99.90;;;;;;5045720;28;20236;-66
2022/04/06 05:50:08;;;;;;;21.73;13.00;;;8.60;99.90;;;;;;5051091;28;20741;-66
2022/04/06 05:52:36;;;;;;;24.60;13.77;;;8.60;99.90;;;;;;5041382;28;21836;-66
2022/04/06 05:55:07;;;;;;;23.67;14.20;;;8.60;99.90;;;;;;5050863;28;20235;-66
2022/04/06 05:57:36;;;;;;;24.20;13.80;;;8.70;99.90;;;;;;5050659;28;20247;-66
2022/04/06 06:00:06;;;;;;;23.53;12.97;;;8.70;99.90;;;;;;5050736;28;20235;-66
2022/04/06 06:02:39;;;;;;;24.67;13.77;;;8.70;99.90;;;;;;5049949;28;20732;-66
2022/04/06 06:05:08;;;;;;;20.67;12.37;;;8.60;99.90;;;;;;5046072;28;20306;-66
2022/04/06 06:07:36;;;;;;;23.43;13.20;;;8.60;99.90;;;;;;5042342;28;20244;-66
2022/04/06 06:10:07;;;;;;;24.93;12.23;;;8.60;99.90;;;;;;5046315;28;20243;-66
2022/04/06 06:12:36;;;;;;;22.27;12.40;;;8.60;99.90;;;;;;5048681;28;20718;-66
2022/04/06 06:15:06;;;;;;;24.00;12.40;;;8.60;99.90;;;;;;5046526;28;20231;-66
2022/04/06 06:17:38;;;;;;;20.37;11.30;;;8.60;99.90;;;;;;5033292;28;20250;-66
2022/04/06 06:20:07;;;;;;;21.10;11.87;;;8.60;99.90;;;;;;5038109;28;20271;-66
2022/04/06 06:22:36;;;;;;;21.17;11.87;;;8.60;99.90;;;;;;5032832;28;20621;-66
2022/04/06 06:25:06;;;;;;;21.10;11.90;;;8.70;99.90;;;;;;5035814;28;20239;-67
2022/04/06 06:27:38;;;;;;;24.13;12.10;;;8.70;99.90;;;;;;5030658;28;20240;-67
2022/04/06 06:30:07;;;;;;;24.97;12.57;;;8.70;99.90;;;;;;5034734;28;20708;-66
2022/04/06 06:32:35;;;;;;;20.87;12.57;;;8.70;99.90;;;;;;5029452;28;20243;-66
2022/04/06 06:35:04;;;;;;;23.97;13.30;;;8.70;99.90;;;;;;5030854;28;20240;-66
2022/04/06 06:37:32;;;;;;;26.67;13.57;;;8.70;99.90;;;;;;5029411;28;20229;-67
2022/04/06 06:40:00;;;;;;;21.87;13.80;;;8.80;99.90;;;;;;5031582;28;20757;-66
2022/04/06 06:42:30;;;;;;;20.33;13.67;;;8.80;99.90;;;;;;5030163;28;20242;-66
2022/04/06 06:44:58;;;;;;;21.80;14.00;;;8.80;99.90;;;;;;5030566;28;20239;-66
2022/04/06 06:47:26;;;;;;;22.47;13.23;;;8.90;99.90;;;;;;5039774;28;20240;-66
2022/04/06 06:49:54;;;;;;;25.40;15.13;;;8.90;99.90;;;;;;5035375;28;20354;-66
2022/04/06 06:52:22;;;;;;;22.07;15.47;;;8.90;99.90;;;;;;5030318;28;20232;-67
2022/04/06 06:54:50;;;;;;;26.50;14.27;;;8.90;99.90;;;;;;5030626;28;20239;-66
2022/04/06 06:57:18;;;;;;;22.93;15.70;;;9.00;99.90;;;;;;5030248;28;20233;-66
2022/04/06 06:59:48;;;;;;;22.63;15.43;;;9.00;99.90;;;;;;5035424;28;20239;-66
2022/04/06 07:02:16;;;;;;;23.13;15.33;;;9.00;99.90;;;;;;5030426;28;20263;-66
2022/04/06 07:04:44;;;;;;;26.33;16.07;;;9.10;99.90;;;;;;5034125;28;20268;-66
2022/04/06 07:07:12;;;;;;;20.93;14.97;;;9.10;99.90;;;;;;5034051;28;20237;-66
2022/04/06 07:09:44;;;;;;;22.10;15.37;;;9.10;99.90;;;;;;5030416;28;20294;-66
2022/04/06 07:12:12;;;;;;;20.77;15.87;;;9.10;99.90;;;;;;5034212;28;20248;-66
2022/04/06 07:14:40;;;;;;;25.07;15.63;;;9.20;99.90;;;;;;5032373;28;20236;-66
2022/04/06 07:17:10;;;;;;;23.20;14.90;;;9.20;99.90;;;;;;5033934;28;20232;-66
2022/04/06 07:19:38;;;;;;;19.83;15.10;;;9.20;99.90;;;;;;5033817;28;20700;-66
2022/04/06 07:22:06;;;;;;;19.53;14.00;;;9.20;99.90;;;;;;5033805;28;20743;-66
2022/04/06 07:24:35;;;;;;;19.27;14.57;;;9.20;99.90;;;;;;5034382;28;20645;-66
2022/04/06 07:27:03;;;;;;;17.40;13.67;;;9.30;99.90;;;;;;5033782;28;20238;-66
2022/04/06 07:29:31;;;;;;;22.77;15.20;;;9.30;99.90;;;;;;5033558;28;20236;-66
2022/04/06 07:31:59;;;;;;;22.10;14.80;;;9.30;99.90;;;;;;5033138;28;20582;-66
2022/04/06 07:34:29;;;;;;;22.43;14.83;;;9.30;99.90;;;;;;5033011;28;20318;-66
2022/04/06 07:36:57;;;;;;;20.20;14.97;;;9.30;99.90;;;;;;5033446;28;20232;-66
2022/04/06 07:39:30;;;;;;;18.07;13.37;;;9.40;99.90;;;;;;5026976;28;20244;-66
2022/04/06 07:41:58;;;;;;;21.77;14.13;;;9.40;99.90;;;;;;5033522;28;20726;-66
2022/04/06 07:44:26;;;;;;;22.83;14.73;;;9.40;99.90;;;;;;5031971;28;20755;-66
2022/04/06 07:46:54;;;;;;;23.43;14.23;;;9.40;99.90;;;;;;5034522;28;20236;-66
2022/04/06 07:49:23;;;;;;;25.63;14.37;;;9.40;99.90;;;;;;5015841;28;20245;-66
2022/04/06 07:51:52;;;;;;;21.27;14.63;;;9.40;99.90;;;;;;5033351;28;20592;-66
2022/04/06 07:54:20;;;;;;;16.07;13.17;;;9.40;99.90;;;;;;5033817;28;20256;-66
2022/04/06 07:56:48;;;;;;;21.47;13.93;;;9.50;99.90;;;;;;5033065;28;20319;-66
2022/04/06 07:59:16;;;;;;;19.10;12.17;;;9.50;99.90;;;;;;5037872;28;20232;-66
2022/04/06 08:01:44;;;;;;;17.73;13.53;;;9.50;99.90;;;;;;5032882;28;20236;-66
2022/04/06 08:04:13;;;;;;;18.90;13.10;;;9.60;99.90;;;;;;5032910;28;20692;-66
2022/04/06 08:06:41;;;;;;;16.73;12.70;;;9.60;99.90;;;;;;5032800;28;20240;-66
2022/04/06 08:09:12;;;;;;;18.90;12.60;;;9.70;99.90;;;;;;5033123;28;20240;-66
2022/04/06 08:11:40;;;;;;;17.70;12.40;;;9.70;99.90;;;;;;5025048;28;20658;-66
2022/04/06 08:14:08;;;;;;;17.00;11.83;;;9.80;99.90;;;;;;5032451;28;20251;-66
2022/04/06 08:16:36;;;;;;;20.53;12.73;;;9.80;99.90;;;;;;5032497;28;20279;-65
2022/04/06 08:19:10;;;;;;;19.93;12.07;;;9.70;99.90;;;;;;5032826;28;20260;-66
2022/04/06 08:21:39;;;;;;;18.07;11.57;;;9.70;99.90;;;;;;5032723;28;20708;-66
2022/04/06 08:24:28;;;;;;;16.53;11.67;;;9.70;99.90;;;;;;5032915;28;20240;-66
2022/04/06 08:26:56;;;;;;;18.37;12.13;;;9.70;99.90;;;;;;5032571;28;20264;-66
2022/04/06 08:29:25;;;;;;;16.00;11.27;;;9.70;99.90;;;;;;5032789;28;20232;-66
2022/04/06 08:31:53;;;;;;;15.33;10.97;;;9.80;99.90;;;;;;5032663;28;20336;-66
2022/04/06 08:34:24;;;;;;;16.13;10.50;;;9.80;99.90;;;;;;5032645;28;20236;-66
2022/04/06 08:36:52;;;;;;;17.33;10.87;;;9.80;99.90;;;;;;5031884;28;20290;-66
2022/04/06 08:39:21;;;;;;;14.47;10.23;;;9.80;99.90;;;;;;5032593;28;20235;-66
2022/04/06 08:41:57;;;;;;;14.73;9.67;;;9.80;99.90;;;;;;5032316;28;20236;-66
2022/04/06 08:44:25;;;;;;;11.60;10.23;;;9.80;99.90;;;;;;5030573;28;21251;-66
2022/04/06 08:46:56;;;;;;;14.73;9.57;;;9.80;99.90;;;;;;5031953;28;20229;-66
2022/04/06 08:49:25;;;;;;;13.83;10.30;;;9.80;99.90;;;;;;5032178;28;20311;-66
2022/04/06 08:51:55;;;;;;;14.27;9.53;;;9.90;99.90;;;;;;5032991;28;20232;-66
2022/04/06 08:54:24;;;;;;;15.53;9.87;;;9.80;99.90;;;;;;5030456;28;20236;-66
2022/04/06 08:56:53;;;;;;;15.17;8.87;;;9.80;99.90;;;;;;5037539;28;20256;-66
2022/04/06 08:59:21;;;;;;;14.47;8.33;;;9.80;99.90;;;;;;5047459;28;20777;-66
2022/04/06 09:01:50;;;;;;;13.50;8.03;;;9.90;99.90;;;;;;5042159;28;20239;-67
2022/04/06 09:04:21;;;;;;;10.67;8.20;;;9.90;99.90;;;;;;5031062;28;20240;-66
2022/04/06 09:07:09;;;;;;;12.13;7.73;;;9.90;99.90;;;;;;5017136;28;20261;-66
2022/04/06 09:09:38;;;;;;;15.63;7.40;;;9.90;99.90;;;;;;5017415;28;20264;-66
2022/04/06 09:12:08;;;;;;;11.27;7.63;;;9.90;99.90;;;;;;5031370;28;20306;-65
2022/04/06 09:14:36;;;;;;;12.50;7.60;;;9.90;99.90;;;;;;5030879;28;20240;-66
2022/04/06 09:17:06;;;;;;;15.27;7.27;;;9.90;99.90;;;;;;5031596;28;20241;-66
2022/04/06 09:19:37;;;;;;;10.70;7.27;;;9.90;99.90;;;;;;5046252;28;20291;-66
2022/04/06 09:22:08;;;;;;;10.37;6.90;;;9.80;99.90;;;;;;5043999;28;20245;-66
2022/04/06 09:24:36;;;;;;;11.50;6.97;;;9.80;99.90;;;;;;5043168;28;20232;-66
2022/04/06 09:27:06;;;;;;;8.73;6.20;;;9.70;99.90;;;;;;5043851;28;20236;-66
2022/04/06 09:29:35;;;;;;;7.97;6.33;;;9.70;99.90;;;;;;5050690;28;20227;-66
2022/04/06 09:32:08;;;;;;;10.43;6.53;;;9.70;99.90;;;;;;5045689;28;20232;-66
2022/04/06 09:34:56;;;;;;;10.33;6.60;;;9.60;99.90;;;;;;5042177;28;20244;-66
2022/04/06 09:37:26;;;;;;;11.37;5.80;;;9.60;99.90;;;;;;5044536;28;20587;-66
2022/04/06 09:39:56;;;;;;;10.07;6.20;;;9.60;99.90;;;;;;5044872;28;20298;-66
2022/04/06 09:42:27;;;;;;;10.57;5.77;;;9.60;99.90;;;;;;5036807;28;20268;-66
2022/04/06 09:47:51;;;;;;;8.23;5.83;;;9.50;99.90;;;;;;5046793;28;20240;-66
2022/04/06 09:50:22;;;;;;;14.97;6.77;;;9.50;99.90;;;;;;5049207;28;20240;-66
2022/04/06 09:52:52;;;;;;;11.13;6.00;;;9.50;99.90;;;;;;5047366;28;20232;-66
2022/04/06 09:55:21;;;;;;;10.03;6.33;;;9.50;99.90;;;;;;5049474;28;20235;-66
2022/04/06 09:57:52;;;;;;;10.13;6.03;;;9.40;99.90;;;;;;5044415;28;20233;-66
2022/04/06 10:00:22;;;;;;;9.63;6.23;;;9.50;99.90;;;;;;5049812;28;20240;-66
2022/04/06 10:02:59;;;;;;;12.70;5.87;;;9.50;99.90;;;;;;5040332;28;20752;-66
2022/04/06 10:05:31;;;;;;;10.17;6.17;;;9.50;99.90;;;;;;5030535;28;20243;-66
2022/04/06 10:08:01;;;;;;;9.47;6.07;;;9.50;99.90;;;;;;5030913;28;20638;-66
2022/04/06 10:10:29;;;;;;;15.43;6.60;;;9.50;99.90;;;;;;5030375;28;20232;-66
2022/04/06 10:12:59;;;;;;;10.27;5.80;;;9.60;99.90;;;;;;5030858;28;20236;-66
2022/04/06 10:15:48;;;;;;;9.60;6.37;;;9.60;99.90;;;;;;5029654;28;20757;-66
2022/04/06 10:18:17;;;;;;;9.03;6.67;;;9.60;99.90;;;;;;5030713;28;20246;-66
2022/04/06 10:20:51;;;;;;;11.33;7.43;;;9.60;99.90;;;;;;5030291;28;20799;-65
2022/04/06 10:23:32;;;;;;;11.67;7.67;;;9.60;99.90;;;;;;5029989;28;20718;-66
2022/04/06 10:26:40;;;;;;;14.20;8.67;;;9.50;99.90;;;;;;5036526;28;20585;-66
2022/04/06 10:29:10;;;;;;;10.17;7.77;;;9.50;99.90;;;;;;5050501;28;20232;-66
2022/04/06 10:31:38;;;;;;;8.83;7.57;;;9.50;99.90;;;;;;5034727;28;20244;-66
2022/04/06 10:34:20;;;;;;;10.80;8.60;;;9.50;99.90;;;;;;5050733;28;20239;-66
2022/04/06 10:37:10;;;;;;;13.20;10.37;;;9.50;99.90;;;;;;5030420;28;20240;-66
2022/04/06 10:39:58;;;;;;;10.77;7.83;;;9.60;99.90;;;;;;5033909;28;20236;-66
2022/04/06 10:42:31;;;;;;;8.73;7.30;;;9.60;99.90;;;;;;5039477;28;20592;-66
2022/04/06 10:45:01;;;;;;;8.30;7.50;;;9.60;99.90;;;;;;5030881;28;20232;-66
2022/04/06 10:47:31;;;;;;;8.87;7.37;;;9.50;99.90;;;;;;5044568;28;20236;-66
2022/04/06 10:50:23;;;;;;;11.00;7.63;;;9.50;99.90;;;;;;5047797;28;20228;-66
2022/04/06 10:53:12;;;;;;;8.83;7.43;;;9.50;99.90;;;;;;5044854;28;20236;-66
2022/04/06 10:55:41;;;;;;;12.60;6.70;;;9.60;99.90;;;;;;5047297;28;20718;-66
2022/04/06 10:58:09;;;;;;;8.80;7.83;;;9.60;99.90;;;;;;5033946;28;20228;-66
2022/04/06 11:00:39;;;;;;;9.63;7.50;;;9.60;99.90;;;;;;5046977;28;20666;-66
2022/04/06 11:03:17;;;;;;;9.73;7.57;;;9.60;99.90;;;;;;5034057;28;20705;-66
2022/04/06 11:05:49;;;;;;;8.57;7.20;;;9.60;99.90;;;;;;5038216;28;20300;-66
2022/04/06 11:11:43;;;;;;;9.70;8.10;;;9.60;99.90;;;;;;5029615;28;20256;-65
2022/04/06 11:14:11;;;;;;;10.07;8.13;;;9.60;99.90;;;;;;5031224;28;20241;-66
2022/04/06 11:16:42;;;;;;;10.73;8.80;;;9.60;99.90;;;;;;5038324;28;20232;-66
2022/04/06 11:19:11;;;;;;;11.97;9.33;;;9.70;99.90;;;;;;5036493;28;20236;-66
2022/04/06 11:21:50;;;;;;;13.97;8.43;;;9.70;99.90;;;;;;5041696;28;20237;-66
2022/04/06 11:24:20;;;;;;;10.13;9.03;;;9.70;99.90;;;;;;5041687;28;20287;-66
2022/04/06 11:26:49;;;;;;;10.27;9.27;;;9.70;99.90;;;;;;5041438;28;20232;-66
2022/04/06 11:29:17;;;;;;;14.37;10.10;;;9.70;99.90;;;;;;5049852;28;20258;-66
2022/04/06 11:31:57;;;;;;;11.37;10.10;;;9.70;99.90;;;;;;5046278;28;20719;-66
2022/04/06 11:34:36;;;;;;;31.13;28.30;;;9.70;99.90;;;;;;5049304;28;20248;-66
2022/04/06 11:37:06;;;;;;;19.67;17.80;;;9.70;99.90;;;;;;5042053;28;20246;-66
2022/04/06 11:39:34;;;;;;;18.60;16.73;;;9.70;99.90;;;;;;5046671;28;20239;-66
2022/04/06 11:42:04;;;;;;;17.73;15.00;;;9.70;99.90;;;;;;5044714;28;20719;-66
2022/04/06 11:44:34;;;;;;;15.53;13.97;;;9.70;99.90;;;;;;5025782;28;20254;-66
2022/04/06 11:47:04;;;;;;;16.80;13.70;;;9.70;99.90;;;;;;5030008;28;20242;-66
2022/04/06 11:49:33;;;;;;;15.67;13.60;;;9.70;99.90;;;;;;5030298;28;20254;-65
2022/04/06 11:52:01;;;;;;;14.00;12.50;;;9.70;99.90;;;;;;5033655;28;20232;-66
2022/04/06 11:54:30;;;;;;;14.63;12.10;;;9.70;99.90;;;;;;5032834;28;20296;-66
2022/04/06 11:56:58;;;;;;;14.60;12.60;;;9.70;99.90;;;;;;5033561;28;20232;-66
2022/04/06 11:59:31;;;;;;;13.73;11.50;;;9.70;99.90;;;;;;5037632;28;20656;-66
2022/04/06 12:02:00;;;;;;;13.03;11.40;;;9.70;99.90;;;;;;5033428;28;20236;-65
2022/04/06 12:04:30;;;;;;;12.47;10.93;;;9.60;99.90;;;;;;5032941;28;20232;-66
2022/04/06 12:06:58;;;;;;;11.67;10.33;;;9.60;99.90;;;;;;5033144;28;20260;-66
2022/04/06 12:09:26;;;;;;;12.23;8.97;;;9.60;99.90;;;;;;5033119;28;21183;-65
2022/04/06 12:11:54;;;;;;;11.90;9.30;;;9.60;99.90;;;;;;5032459;28;20343;-66
2022/04/06 12:14:22;;;;;;;11.03;9.33;;;9.80;99.90;;;;;;5035581;28;20235;-66
2022/04/06 12:16:51;;;;;;;9.87;8.33;;;9.80;99.90;;;;;;5037835;28;20244;-66
2022/04/06 12:19:20;;;;;;;12.30;8.57;;;9.90;99.90;;;;;;5033070;28;20237;-66
2022/04/06 12:21:50;;;;;;;14.17;8.60;;;10.00;99.90;;;;;;5032832;28;20272;-66
2022/04/06 12:24:20;;;;;;;8.70;7.60;;;10.00;99.90;;;;;;5032550;28;20320;-66
2022/04/06 12:26:54;;;;;;;11.67;8.37;;;10.10;99.90;;;;;;5032726;28;20274;-66
2022/04/06 12:30:02;;;;;;;12.07;7.90;;;10.20;99.90;;;;;;5032260;28;20237;-66
2022/04/06 12:32:42;;;;;;;9.30;7.77;;;10.20;99.90;;;;;;5032490;28;20234;-66
2022/04/06 12:35:21;;;;;;;10.70;8.30;;;10.20;99.90;;;;;;5035642;28;20322;-66
2022/04/06 12:37:51;;;;;;;10.03;7.90;;;10.20;99.90;;;;;;5033553;28;20596;-66
2022/04/06 12:40:23;;;;;;;12.97;8.33;;;10.20;99.90;;;;;;5032319;28;20237;-66
2022/04/06 12:42:51;;;;;;;13.23;11.43;;;10.10;99.90;;;;;;5032409;28;20233;-66
2022/04/06 12:45:20;;;;;;;14.67;11.33;;;10.10;99.90;;;;;;5032767;28;20731;-66
2022/04/06 12:47:48;;;;;;;11.73;10.50;;;10.10;99.90;;;;;;5031992;28;20244;-66
2022/04/06 12:50:19;;;;;;;12.87;10.60;;;10.00;99.90;;;;;;5032321;28;20248;-66
2022/04/06 12:53:07;;;;;;;13.40;9.73;;;10.00;99.90;;;;;;5033182;28;20243;-66
2022/04/06 12:55:35;;;;;;;14.10;9.50;;;10.00;99.90;;;;;;5022144;28;20323;-66
2022/04/06 12:58:16;;;;;;;11.10;9.33;;;10.00;99.90;;;;;;5032157;28;20232;-65
2022/04/06 13:00:45;;;;;;;13.60;10.47;;;10.00;99.90;;;;;;5016976;28;20331;-66
2022/04/06 13:03:15;;;;;;;16.70;11.43;;;10.00;99.90;;;;;;5027921;28;20592;-66
2022/04/06 13:05:44;;;;;;;14.47;10.47;;;10.00;99.90;;;;;;5051483;28;20235;-65
2022/04/06 13:08:13;;;;;;;12.60;10.47;;;10.00;99.90;;;;;;5043782;28;20315;-65